sensor_id;sensor_type;location;lat;lon;timestamp;P1;durP1;ratioP1;P2;durP2;ratioP2
13335;SDS011;6737;51.480;11.962;2023-07-29T00:00:47;1.40;;;1.30;;
13335;SDS011;6737;51.480;11.962;2023-07-29T00:03:12;1.75;;;1.40;;
13335;SDS011;6737;51.480;11.962;2023-07-29T00:05:39;1.48;;;1.25;;
13335;SDS011;6737;51.480;11.962;2023-07-29T00:08:06;1.75;;;1.50;;
13335;SDS011;6737;51.480;11.962;2023-07-29T00:10:32;1.45;;;1.35;;
13335;SDS011;6737;51.480;11.962;2023-07-29T00:13:00;2.25;;;1.17;;
13335;SDS011;6737;51.480;11.962;2023-07-29T00:15:26;1.90;;;1.38;;
13335;SDS011;6737;51.480;11.962;2023-07-29T00:17:52;1.65;;;1.40;;
13335;SDS011;6737;51.480;11.962;2023-07-29T00:20:18;1.58;;;1.48;;
13335;SDS011;6737;51.480;11.962;2023-07-29T00:22:43;1.60;;;1.40;;
13335;SDS011;6737;51.480;11.962;2023-07-29T00:25:09;2.47;;;1.30;;
13335;SDS011;6737;51.480;11.962;2023-07-29T00:27:35;3.13;;;1.50;;
13335;SDS011;6737;51.480;11.962;2023-07-29T00:30:01;1.50;;;1.40;;
13335;SDS011;6737;51.480;11.962;2023-07-29T00:32:28;1.52;;;1.23;;
13335;SDS011;6737;51.480;11.962;2023-07-29T00:34:56;2.85;;;1.45;;
13335;SDS011;6737;51.480;11.962;2023-07-29T00:37:21;1.42;;;1.33;;
13335;SDS011;6737;51.480;11.962;2023-07-29T00:39:47;1.40;;;1.30;;
13335;SDS011;6737;51.480;11.962;2023-07-29T00:42:13;1.27;;;1.17;;
13335;SDS011;6737;51.480;11.962;2023-07-29T00:44:39;1.40;;;1.30;;
13335;SDS011;6737;51.480;11.962;2023-07-29T00:47:04;1.55;;;1.40;;
13335;SDS011;6737;51.480;11.962;2023-07-29T00:49:32;1.70;;;1.23;;
13335;SDS011;6737;51.480;11.962;2023-07-29T00:51:58;1.25;;;1.15;;
13335;SDS011;6737;51.480;11.962;2023-07-29T00:54:24;1.55;;;1.30;;
13335;SDS011;6737;51.480;11.962;2023-07-29T00:56:50;1.30;;;1.20;;
13335;SDS011;6737;51.480;11.962;2023-07-29T00:59:16;1.25;;;1.15;;
13335;SDS011;6737;51.480;11.962;2023-07-29T01:01:42;2.20;;;1.23;;
13335;SDS011;6737;51.480;11.962;2023-07-29T01:04:08;1.30;;;1.20;;
13335;SDS011;6737;51.480;11.962;2023-07-29T01:09:24;1.40;;;1.30;;
13335;SDS011;6737;51.480;11.962;2023-07-29T01:15:09;1.52;;;1.20;;
13335;SDS011;6737;51.480;11.962;2023-07-29T01:17:55;1.17;;;1.10;;
13335;SDS011;6737;51.480;11.962;2023-07-29T01:20:29;1.30;;;1.20;;
13335;SDS011;6737;51.480;11.962;2023-07-29T01:22:57;1.85;;;1.30;;
13335;SDS011;6737;51.480;11.962;2023-07-29T01:25:23;2.20;;;1.10;;
13335;SDS011;6737;51.480;11.962;2023-07-29T01:27:49;2.28;;;1.27;;
13335;SDS011;6737;51.480;11.962;2023-07-29T01:30:17;1.45;;;1.27;;
13335;SDS011;6737;51.480;11.962;2023-07-29T01:33:02;1.85;;;1.30;;
13335;SDS011;6737;51.480;11.962;2023-07-29T01:35:42;1.30;;;1.20;;
13335;SDS011;6737;51.480;11.962;2023-07-29T01:38:21;1.20;;;1.10;;
13335;SDS011;6737;51.480;11.962;2023-07-29T01:41:04;1.50;;;1.40;;
13335;SDS011;6737;51.480;11.962;2023-07-29T01:43:32;1.92;;;1.30;;
13335;SDS011;6737;51.480;11.962;2023-07-29T01:46:00;1.40;;;1.30;;
13335;SDS011;6737;51.480;11.962;2023-07-29T01:48:26;8.60;;;1.42;;
13335;SDS011;6737;51.480;11.962;2023-07-29T01:50:55;1.45;;;1.20;;
13335;SDS011;6737;51.480;11.962;2023-07-29T01:53:21;1.63;;;1.40;;
13335;SDS011;6737;51.480;11.962;2023-07-29T01:55:47;1.40;;;1.30;;
13335;SDS011;6737;51.480;11.962;2023-07-29T01:58:12;1.38;;;1.27;;
13335;SDS011;6737;51.480;11.962;2023-07-29T02:00:39;1.55;;;1.45;;
13335;SDS011;6737;51.480;11.962;2023-07-29T02:03:05;2.50;;;1.30;;
13335;SDS011;6737;51.480;11.962;2023-07-29T02:05:31;1.55;;;1.20;;
13335;SDS011;6737;51.480;11.962;2023-07-29T02:07:57;1.52;;;1.30;;
13335;SDS011;6737;51.480;11.962;2023-07-29T02:10:22;1.42;;;1.33;;
13335;SDS011;6737;51.480;11.962;2023-07-29T02:12:48;2.30;;;1.30;;
13335;SDS011;6737;51.480;11.962;2023-07-29T02:15:14;1.50;;;1.40;;
13335;SDS011;6737;51.480;11.962;2023-07-29T02:17:41;2.50;;;1.30;;
13335;SDS011;6737;51.480;11.962;2023-07-29T02:20:07;1.40;;;1.30;;
13335;SDS011;6737;51.480;11.962;2023-07-29T02:22:33;2.05;;;1.40;;
13335;SDS011;6737;51.480;11.962;2023-07-29T02:24:59;1.98;;;1.42;;
13335;SDS011;6737;51.480;11.962;2023-07-29T02:27:26;2.13;;;1.40;;
13335;SDS011;6737;51.480;11.962;2023-07-29T02:29:54;2.85;;;1.20;;
13335;SDS011;6737;51.480;11.962;2023-07-29T02:32:20;3.45;;;1.45;;
13335;SDS011;6737;51.480;11.962;2023-07-29T02:34:46;2.08;;;1.20;;
13335;SDS011;6737;51.480;11.962;2023-07-29T02:37:12;2.20;;;1.50;;
13335;SDS011;6737;51.480;11.962;2023-07-29T02:39:37;2.65;;;1.42;;
13335;SDS011;6737;51.480;11.962;2023-07-29T02:42:03;1.50;;;1.40;;
13335;SDS011;6737;51.480;11.962;2023-07-29T02:44:29;2.65;;;1.38;;
13335;SDS011;6737;51.480;11.962;2023-07-29T02:46:55;1.42;;;1.33;;
13335;SDS011;6737;51.480;11.962;2023-07-29T02:49:21;1.55;;;1.30;;
13335;SDS011;6737;51.480;11.962;2023-07-29T02:51:49;1.60;;;1.50;;
13335;SDS011;6737;51.480;11.962;2023-07-29T02:54:14;2.08;;;1.42;;
13335;SDS011;6737;51.480;11.962;2023-07-29T02:56:40;2.35;;;1.27;;
13335;SDS011;6737;51.480;11.962;2023-07-29T02:59:06;1.70;;;1.50;;
13335;SDS011;6737;51.480;11.962;2023-07-29T03:01:31;2.05;;;1.45;;
13335;SDS011;6737;51.480;11.962;2023-07-29T03:03:57;1.80;;;1.45;;
13335;SDS011;6737;51.480;11.962;2023-07-29T03:06:23;1.38;;;1.27;;
13335;SDS011;6737;51.480;11.962;2023-07-29T03:08:49;1.73;;;1.63;;
13335;SDS011;6737;51.480;11.962;2023-07-29T03:11:15;2.33;;;1.30;;
13335;SDS011;6737;51.480;11.962;2023-07-29T03:13:41;1.80;;;1.70;;
13335;SDS011;6737;51.480;11.962;2023-07-29T03:16:08;1.50;;;1.40;;
13335;SDS011;6737;51.480;11.962;2023-07-29T03:18:39;1.70;;;1.60;;
13335;SDS011;6737;51.480;11.962;2023-07-29T03:21:05;1.52;;;1.42;;
13335;SDS011;6737;51.480;11.962;2023-07-29T03:23:31;1.40;;;1.30;;
13335;SDS011;6737;51.480;11.962;2023-07-29T03:25:58;2.08;;;1.50;;
13335;SDS011;6737;51.480;11.962;2023-07-29T03:28:27;1.50;;;1.40;;
13335;SDS011;6737;51.480;11.962;2023-07-29T03:30:55;1.73;;;1.60;;
13335;SDS011;6737;51.480;11.962;2023-07-29T03:33:21;1.75;;;1.50;;
13335;SDS011;6737;51.480;11.962;2023-07-29T03:35:48;1.70;;;1.50;;
13335;SDS011;6737;51.480;11.962;2023-07-29T03:38:14;1.80;;;1.50;;
13335;SDS011;6737;51.480;11.962;2023-07-29T03:40:41;1.60;;;1.40;;
13335;SDS011;6737;51.480;11.962;2023-07-29T03:43:07;1.63;;;1.52;;
13335;SDS011;6737;51.480;11.962;2023-07-29T03:45:33;1.50;;;1.40;;
13335;SDS011;6737;51.480;11.962;2023-07-29T03:48:00;1.70;;;1.60;;
13335;SDS011;6737;51.480;11.962;2023-07-29T03:50:26;2.13;;;1.55;;
13335;SDS011;6737;51.480;11.962;2023-07-29T03:52:53;3.92;;;1.60;;
13335;SDS011;6737;51.480;11.962;2023-07-29T03:55:19;2.65;;;1.60;;
13335;SDS011;6737;51.480;11.962;2023-07-29T03:57:46;1.83;;;1.50;;
13335;SDS011;6737;51.480;11.962;2023-07-29T04:00:12;2.33;;;1.65;;
13335;SDS011;6737;51.480;11.962;2023-07-29T04:02:38;2.15;;;1.60;;
13335;SDS011;6737;51.480;11.962;2023-07-29T04:05:04;4.28;;;1.58;;
13335;SDS011;6737;51.480;11.962;2023-07-29T04:07:31;1.52;;;1.42;;
13335;SDS011;6737;51.480;11.962;2023-07-29T04:09:56;2.50;;;1.30;;
13335;SDS011;6737;51.480;11.962;2023-07-29T04:12:23;1.63;;;1.52;;
13335;SDS011;6737;51.480;11.962;2023-07-29T04:14:49;1.60;;;1.50;;
13335;SDS011;6737;51.480;11.962;2023-07-29T04:17:15;2.22;;;1.48;;
13335;SDS011;6737;51.480;11.962;2023-07-29T04:19:40;2.22;;;1.55;;
13335;SDS011;6737;51.480;11.962;2023-07-29T04:22:06;2.05;;;1.70;;
13335;SDS011;6737;51.480;11.962;2023-07-29T04:24:32;1.63;;;1.52;;
13335;SDS011;6737;51.480;11.962;2023-07-29T04:26:58;2.03;;;1.60;;
13335;SDS011;6737;51.480;11.962;2023-07-29T04:29:25;1.60;;;1.50;;
13335;SDS011;6737;51.480;11.962;2023-07-29T04:31:50;2.20;;;1.60;;
13335;SDS011;6737;51.480;11.962;2023-07-29T04:34:17;3.22;;;1.50;;
13335;SDS011;6737;51.480;11.962;2023-07-29T04:36:44;2.40;;;1.50;;
13335;SDS011;6737;51.480;11.962;2023-07-29T04:39:11;2.90;;;1.60;;
13335;SDS011;6737;51.480;11.962;2023-07-29T04:41:37;1.60;;;1.40;;
13335;SDS011;6737;51.480;11.962;2023-07-29T04:44:02;1.70;;;1.60;;
13335;SDS011;6737;51.480;11.962;2023-07-29T04:46:28;1.65;;;1.40;;
13335;SDS011;6737;51.480;11.962;2023-07-29T04:48:54;2.25;;;1.58;;
13335;SDS011;6737;51.480;11.962;2023-07-29T04:51:20;1.73;;;1.50;;
13335;SDS011;6737;51.480;11.962;2023-07-29T04:53:46;1.70;;;1.60;;
13335;SDS011;6737;51.480;11.962;2023-07-29T04:56:11;1.95;;;1.65;;
13335;SDS011;6737;51.480;11.962;2023-07-29T04:58:37;1.73;;;1.52;;
13335;SDS011;6737;51.480;11.962;2023-07-29T05:01:03;1.63;;;1.50;;
13335;SDS011;6737;51.480;11.962;2023-07-29T05:03:29;1.85;;;1.63;;
13335;SDS011;6737;51.480;11.962;2023-07-29T05:05:56;2.53;;;1.60;;
13335;SDS011;6737;51.480;11.962;2023-07-29T05:08:23;1.90;;;1.80;;
13335;SDS011;6737;51.480;11.962;2023-07-29T05:10:50;1.45;;;1.35;;
13335;SDS011;6737;51.480;11.962;2023-07-29T05:13:17;1.70;;;1.52;;
13335;SDS011;6737;51.480;11.962;2023-07-29T05:15:43;1.92;;;1.70;;
13335;SDS011;6737;51.480;11.962;2023-07-29T05:18:08;1.73;;;1.63;;
13335;SDS011;6737;51.480;11.962;2023-07-29T05:20:34;2.35;;;1.73;;
13335;SDS011;6737;51.480;11.962;2023-07-29T05:23:00;1.85;;;1.65;;
13335;SDS011;6737;51.480;11.962;2023-07-29T05:25:26;1.90;;;1.60;;
13335;SDS011;6737;51.480;11.962;2023-07-29T05:27:52;1.58;;;1.48;;
13335;SDS011;6737;51.480;11.962;2023-07-29T05:30:18;1.77;;;1.67;;
13335;SDS011;6737;51.480;11.962;2023-07-29T05:32:44;1.90;;;1.60;;
13335;SDS011;6737;51.480;11.962;2023-07-29T05:35:10;1.92;;;1.55;;
13335;SDS011;6737;51.480;11.962;2023-07-29T05:37:38;2.05;;;1.58;;
13335;SDS011;6737;51.480;11.962;2023-07-29T05:40:07;2.35;;;1.48;;
13335;SDS011;6737;51.480;11.962;2023-07-29T05:42:34;1.52;;;1.42;;
13335;SDS011;6737;51.480;11.962;2023-07-29T05:44:59;1.70;;;1.60;;
13335;SDS011;6737;51.480;11.962;2023-07-29T05:47:25;1.67;;;1.35;;
13335;SDS011;6737;51.480;11.962;2023-07-29T05:49:52;1.70;;;1.60;;
13335;SDS011;6737;51.480;11.962;2023-07-29T05:52:18;1.70;;;1.60;;
13335;SDS011;6737;51.480;11.962;2023-07-29T05:54:44;1.60;;;1.50;;
13335;SDS011;6737;51.480;11.962;2023-07-29T05:57:11;1.60;;;1.50;;
13335;SDS011;6737;51.480;11.962;2023-07-29T05:59:38;1.52;;;1.42;;
13335;SDS011;6737;51.480;11.962;2023-07-29T06:02:04;1.67;;;1.58;;
13335;SDS011;6737;51.480;11.962;2023-07-29T06:04:30;1.63;;;1.50;;
13335;SDS011;6737;51.480;11.962;2023-07-29T06:06:55;1.60;;;1.50;;
13335;SDS011;6737;51.480;11.962;2023-07-29T06:09:22;2.28;;;1.60;;
13335;SDS011;6737;51.480;11.962;2023-07-29T06:11:48;1.75;;;1.65;;
13335;SDS011;6737;51.480;11.962;2023-07-29T06:14:14;2.28;;;1.80;;
13335;SDS011;6737;51.480;11.962;2023-07-29T06:16:40;1.60;;;1.50;;
13335;SDS011;6737;51.480;11.962;2023-07-29T06:19:05;1.40;;;1.30;;
13335;SDS011;6737;51.480;11.962;2023-07-29T06:21:34;3.15;;;1.50;;
13335;SDS011;6737;51.480;11.962;2023-07-29T06:24:00;2.70;;;1.40;;
13335;SDS011;6737;51.480;11.962;2023-07-29T06:26:27;1.73;;;1.58;;
13335;SDS011;6737;51.480;11.962;2023-07-29T06:28:53;1.92;;;1.63;;
13335;SDS011;6737;51.480;11.962;2023-07-29T06:31:19;1.60;;;1.50;;
13335;SDS011;6737;51.480;11.962;2023-07-29T06:33:45;4.90;;;1.60;;
13335;SDS011;6737;51.480;11.962;2023-07-29T06:36:11;1.60;;;1.50;;
13335;SDS011;6737;51.480;11.962;2023-07-29T06:38:37;1.55;;;1.45;;
13335;SDS011;6737;51.480;11.962;2023-07-29T06:41:06;2.45;;;1.80;;
13335;SDS011;6737;51.480;11.962;2023-07-29T06:43:32;2.60;;;1.55;;
13335;SDS011;6737;51.480;11.962;2023-07-29T06:45:57;1.80;;;1.52;;
13335;SDS011;6737;51.480;11.962;2023-07-29T06:48:23;2.10;;;1.70;;
13335;SDS011;6737;51.480;11.962;2023-07-29T06:50:49;1.60;;;1.42;;
13335;SDS011;6737;51.480;11.962;2023-07-29T06:53:16;2.95;;;1.60;;
13335;SDS011;6737;51.480;11.962;2023-07-29T06:55:42;1.58;;;1.48;;
13335;SDS011;6737;51.480;11.962;2023-07-29T06:58:09;1.58;;;1.48;;
13335;SDS011;6737;51.480;11.962;2023-07-29T07:00:35;2.30;;;1.50;;
13335;SDS011;6737;51.480;11.962;2023-07-29T07:03:01;1.60;;;1.50;;
13335;SDS011;6737;51.480;11.962;2023-07-29T07:05:27;1.60;;;1.50;;
13335;SDS011;6737;51.480;11.962;2023-07-29T07:07:53;4.65;;;1.50;;
13335;SDS011;6737;51.480;11.962;2023-07-29T07:10:19;1.50;;;1.40;;
13335;SDS011;6737;51.480;11.962;2023-07-29T07:12:44;1.60;;;1.50;;
13335;SDS011;6737;51.480;11.962;2023-07-29T07:15:10;1.60;;;1.50;;
13335;SDS011;6737;51.480;11.962;2023-07-29T07:17:36;1.50;;;1.40;;
13335;SDS011;6737;51.480;11.962;2023-07-29T07:20:02;1.42;;;1.30;;
13335;SDS011;6737;51.480;11.962;2023-07-29T07:22:28;1.45;;;1.30;;
13335;SDS011;6737;51.480;11.962;2023-07-29T07:24:54;2.53;;;1.50;;
13335;SDS011;6737;51.480;11.962;2023-07-29T07:27:20;2.00;;;1.50;;
13335;SDS011;6737;51.480;11.962;2023-07-29T07:29:46;2.70;;;1.63;;
13335;SDS011;6737;51.480;11.962;2023-07-29T07:32:11;2.13;;;1.65;;
13335;SDS011;6737;51.480;11.962;2023-07-29T07:34:37;2.85;;;1.50;;
13335;SDS011;6737;51.480;11.962;2023-07-29T07:37:03;1.52;;;1.42;;
13335;SDS011;6737;51.480;11.962;2023-07-29T07:39:29;1.70;;;1.60;;
13335;SDS011;6737;51.480;11.962;2023-07-29T07:41:56;1.60;;;1.50;;
13335;SDS011;6737;51.480;11.962;2023-07-29T07:44:22;2.08;;;1.60;;
13335;SDS011;6737;51.480;11.962;2023-07-29T07:46:48;2.47;;;1.67;;
13335;SDS011;6737;51.480;11.962;2023-07-29T07:49:14;1.58;;;1.48;;
13335;SDS011;6737;51.480;11.962;2023-07-29T07:51:39;1.73;;;1.60;;
13335;SDS011;6737;51.480;11.962;2023-07-29T07:54:05;2.70;;;1.77;;
13335;SDS011;6737;51.480;11.962;2023-07-29T07:56:31;3.72;;;1.60;;
13335;SDS011;6737;51.480;11.962;2023-07-29T07:58:57;2.83;;;1.65;;
13335;SDS011;6737;51.480;11.962;2023-07-29T08:01:23;3.47;;;1.52;;
13335;SDS011;6737;51.480;11.962;2023-07-29T08:03:48;1.60;;;1.50;;
13335;SDS011;6737;51.480;11.962;2023-07-29T08:06:14;1.73;;;1.60;;
13335;SDS011;6737;51.480;11.962;2023-07-29T08:08:40;1.90;;;1.70;;
13335;SDS011;6737;51.480;11.962;2023-07-29T08:11:05;1.60;;;1.50;;
13335;SDS011;6737;51.480;11.962;2023-07-29T08:13:31;2.42;;;1.73;;
13335;SDS011;6737;51.480;11.962;2023-07-29T08:15:57;1.75;;;1.65;;
13335;SDS011;6737;51.480;11.962;2023-07-29T08:18:23;1.63;;;1.48;;
13335;SDS011;6737;51.480;11.962;2023-07-29T08:20:55;1.90;;;1.70;;
13335;SDS011;6737;51.480;11.962;2023-07-29T08:23:26;2.03;;;1.52;;
13335;SDS011;6737;51.480;11.962;2023-07-29T08:25:55;1.67;;;1.58;;
13335;SDS011;6737;51.480;11.962;2023-07-29T08:28:33;1.67;;;1.58;;
13335;SDS011;6737;51.480;11.962;2023-07-29T08:31:00;1.52;;;1.40;;
13335;SDS011;6737;51.480;11.962;2023-07-29T08:33:26;1.88;;;1.38;;
13335;SDS011;6737;51.480;11.962;2023-07-29T08:35:53;1.58;;;1.27;;
13335;SDS011;6737;51.480;11.962;2023-07-29T08:38:19;1.52;;;1.42;;
13335;SDS011;6737;51.480;11.962;2023-07-29T08:40:48;1.73;;;1.60;;
13335;SDS011;6737;51.480;11.962;2023-07-29T08:43:19;1.77;;;1.67;;
13335;SDS011;6737;51.480;11.962;2023-07-29T08:45:49;2.22;;;1.48;;
13335;SDS011;6737;51.480;11.962;2023-07-29T08:48:17;2.13;;;1.40;;
13335;SDS011;6737;51.480;11.962;2023-07-29T08:50:49;1.50;;;1.40;;
13335;SDS011;6737;51.480;11.962;2023-07-29T08:53:16;1.95;;;1.23;;
13335;SDS011;6737;51.480;11.962;2023-07-29T08:55:42;1.30;;;1.20;;
13335;SDS011;6737;51.480;11.962;2023-07-29T08:58:08;1.30;;;1.20;;
13335;SDS011;6737;51.480;11.962;2023-07-29T09:00:35;1.17;;;1.08;;
13335;SDS011;6737;51.480;11.962;2023-07-29T09:03:02;1.60;;;1.20;;
13335;SDS011;6737;51.480;11.962;2023-07-29T09:05:32;1.83;;;1.17;;
13335;SDS011;6737;51.480;11.962;2023-07-29T09:07:59;1.30;;;1.15;;
13335;SDS011;6737;51.480;11.962;2023-07-29T09:10:28;1.15;;;1.05;;
13335;SDS011;6737;51.480;11.962;2023-07-29T09:12:54;2.78;;;1.20;;
13335;SDS011;6737;51.480;11.962;2023-07-29T09:15:30;1.20;;;1.10;;
13335;SDS011;6737;51.480;11.962;2023-07-29T09:17:58;1.13;;;1.00;;
13335;SDS011;6737;51.480;11.962;2023-07-29T09:20:27;0.80;;;0.80;;
13335;SDS011;6737;51.480;11.962;2023-07-29T09:22:57;0.90;;;0.90;;
13335;SDS011;6737;51.480;11.962;2023-07-29T09:25:27;3.00;;;1.23;;
13335;SDS011;6737;51.480;11.962;2023-07-29T09:28:00;2.20;;;1.00;;
13335;SDS011;6737;51.480;11.962;2023-07-29T09:30:27;1.05;;;0.95;;
13335;SDS011;6737;51.480;11.962;2023-07-29T09:32:56;1.30;;;1.20;;
13335;SDS011;6737;51.480;11.962;2023-07-29T09:35:22;1.20;;;1.10;;
13335;SDS011;6737;51.480;11.962;2023-07-29T09:37:50;1.20;;;1.00;;
13335;SDS011;6737;51.480;11.962;2023-07-29T09:40:17;1.40;;;1.10;;
13335;SDS011;6737;51.480;11.962;2023-07-29T09:42:53;1.20;;;1.10;;
13335;SDS011;6737;51.480;11.962;2023-07-29T09:45:20;1.10;;;1.00;;
13335;SDS011;6737;51.480;11.962;2023-07-29T09:47:48;1.45;;;1.20;;
13335;SDS011;6737;51.480;11.962;2023-07-29T09:50:14;1.25;;;1.13;;
13335;SDS011;6737;51.480;11.962;2023-07-29T09:52:40;1.20;;;1.10;;
13335;SDS011;6737;51.480;11.962;2023-07-29T09:55:07;1.98;;;1.20;;
13335;SDS011;6737;51.480;11.962;2023-07-29T09:57:34;2.45;;;1.10;;
13335;SDS011;6737;51.480;11.962;2023-07-29T10:00:01;1.63;;;1.30;;
13335;SDS011;6737;51.480;11.962;2023-07-29T10:02:30;2.90;;;1.35;;
13335;SDS011;6737;51.480;11.962;2023-07-29T10:04:56;2.50;;;1.17;;
13335;SDS011;6737;51.480;11.962;2023-07-29T10:07:24;8.90;;;1.27;;
13335;SDS011;6737;51.480;11.962;2023-07-29T10:09:51;1.10;;;1.00;;
13335;SDS011;6737;51.480;11.962;2023-07-29T10:12:19;1.65;;;1.10;;
13335;SDS011;6737;51.480;11.962;2023-07-29T10:14:45;1.27;;;1.17;;
13335;SDS011;6737;51.480;11.962;2023-07-29T10:17:15;1.52;;;1.20;;
13335;SDS011;6737;51.480;11.962;2023-07-29T10:19:41;1.80;;;1.13;;
13335;SDS011;6737;51.480;11.962;2023-07-29T10:22:10;1.15;;;1.05;;
13335;SDS011;6737;51.480;11.962;2023-07-29T10:24:38;1.63;;;1.10;;
13335;SDS011;6737;51.480;11.962;2023-07-29T10:27:07;2.35;;;1.10;;
13335;SDS011;6737;51.480;11.962;2023-07-29T10:29:40;1.30;;;1.20;;
13335;SDS011;6737;51.480;11.962;2023-07-29T10:32:11;1.58;;;1.25;;
13335;SDS011;6737;51.480;11.962;2023-07-29T10:34:37;3.08;;;1.33;;
13335;SDS011;6737;51.480;11.962;2023-07-29T10:37:05;1.40;;;1.15;;
13335;SDS011;6737;51.480;11.962;2023-07-29T10:39:38;1.45;;;1.33;;
13335;SDS011;6737;51.480;11.962;2023-07-29T10:42:05;1.88;;;1.40;;
13335;SDS011;6737;51.480;11.962;2023-07-29T10:47:15;1.40;;;1.30;;
13335;SDS011;6737;51.480;11.962;2023-07-29T10:49:43;1.45;;;1.20;;
13335;SDS011;6737;51.480;11.962;2023-07-29T10:52:13;1.23;;;1.13;;
13335;SDS011;6737;51.480;11.962;2023-07-29T10:54:53;1.80;;;1.45;;
13335;SDS011;6737;51.480;11.962;2023-07-29T10:57:35;2.17;;;1.10;;
13335;SDS011;6737;51.480;11.962;2023-07-29T11:00:03;1.35;;;1.25;;
13335;SDS011;6737;51.480;11.962;2023-07-29T11:02:31;1.70;;;1.60;;
13335;SDS011;6737;51.480;11.962;2023-07-29T11:04:58;1.63;;;1.40;;
13335;SDS011;6737;51.480;11.962;2023-07-29T11:07:29;1.27;;;1.17;;
13335;SDS011;6737;51.480;11.962;2023-07-29T11:09:56;2.50;;;1.50;;
13335;SDS011;6737;51.480;11.962;2023-07-29T11:17:44;1.60;;;1.30;;
13335;SDS011;6737;51.480;11.962;2023-07-29T11:20:15;2.42;;;1.40;;
13335;SDS011;6737;51.480;11.962;2023-07-29T11:22:42;2.08;;;1.30;;
13335;SDS011;6737;51.480;11.962;2023-07-29T11:25:09;1.50;;;1.40;;
13335;SDS011;6737;51.480;11.962;2023-07-29T11:27:36;1.80;;;1.40;;
13335;SDS011;6737;51.480;11.962;2023-07-29T11:30:03;1.88;;;1.48;;
13335;SDS011;6737;51.480;11.962;2023-07-29T11:32:31;2.75;;;1.48;;
13335;SDS011;6737;51.480;11.962;2023-07-29T11:35:01;2.30;;;1.38;;
13335;SDS011;6737;51.480;11.962;2023-07-29T11:37:35;1.50;;;1.40;;
13335;SDS011;6737;51.480;11.962;2023-07-29T11:40:01;2.55;;;1.40;;
13335;SDS011;6737;51.480;11.962;2023-07-29T11:42:28;1.70;;;1.50;;
13335;SDS011;6737;51.480;11.962;2023-07-29T11:44:56;1.50;;;1.40;;
13335;SDS011;6737;51.480;11.962;2023-07-29T11:47:23;1.40;;;1.30;;
13335;SDS011;6737;51.480;11.962;2023-07-29T11:49:50;1.98;;;1.67;;
13335;SDS011;6737;51.480;11.962;2023-07-29T11:52:15;2.17;;;1.30;;
13335;SDS011;6737;51.480;11.962;2023-07-29T11:54:47;1.88;;;1.40;;
13335;SDS011;6737;51.480;11.962;2023-07-29T11:57:14;1.40;;;1.30;;
13335;SDS011;6737;51.480;11.962;2023-07-29T11:59:40;2.20;;;1.50;;
13335;SDS011;6737;51.480;11.962;2023-07-29T12:02:09;2.92;;;1.50;;
13335;SDS011;6737;51.480;11.962;2023-07-29T12:04:37;2.38;;;1.40;;
13335;SDS011;6737;51.480;11.962;2023-07-29T12:07:05;2.20;;;1.25;;
13335;SDS011;6737;51.480;11.962;2023-07-29T12:09:31;2.22;;;1.30;;
13335;SDS011;6737;51.480;11.962;2023-07-29T12:11:58;1.70;;;1.60;;
13335;SDS011;6737;51.480;11.962;2023-07-29T12:14:28;1.92;;;1.50;;
13335;SDS011;6737;51.480;11.962;2023-07-29T12:16:54;1.55;;;1.45;;
13335;SDS011;6737;51.480;11.962;2023-07-29T12:19:20;2.17;;;1.40;;
13335;SDS011;6737;51.480;11.962;2023-07-29T12:21:47;2.78;;;1.42;;
13335;SDS011;6737;51.480;11.962;2023-07-29T12:24:14;2.10;;;1.48;;
13335;SDS011;6737;51.480;11.962;2023-07-29T12:26:40;2.05;;;1.30;;
13335;SDS011;6737;51.480;11.962;2023-07-29T12:29:16;1.73;;;1.42;;
13335;SDS011;6737;51.480;11.962;2023-07-29T12:31:45;1.67;;;1.40;;
13335;SDS011;6737;51.480;11.962;2023-07-29T12:34:18;2.67;;;1.50;;
13335;SDS011;6737;51.480;11.962;2023-07-29T12:36:46;4.25;;;1.50;;
13335;SDS011;6737;51.480;11.962;2023-07-29T12:39:23;3.17;;;1.40;;
13335;SDS011;6737;51.480;11.962;2023-07-29T12:41:49;1.30;;;1.20;;
13335;SDS011;6737;51.480;11.962;2023-07-29T12:44:16;1.65;;;1.55;;
13335;SDS011;6737;51.480;11.962;2023-07-29T12:46:42;2.20;;;1.60;;
13335;SDS011;6737;51.480;11.962;2023-07-29T12:49:09;1.60;;;1.50;;
13335;SDS011;6737;51.480;11.962;2023-07-29T12:51:34;2.22;;;1.40;;
13335;SDS011;6737;51.480;11.962;2023-07-29T12:54:01;2.20;;;1.45;;
13335;SDS011;6737;51.480;11.962;2023-07-29T12:56:28;1.88;;;1.40;;
13335;SDS011;6737;51.480;11.962;2023-07-29T12:58:56;1.80;;;1.58;;
13335;SDS011;6737;51.480;11.962;2023-07-29T13:01:24;5.25;;;1.50;;
13335;SDS011;6737;51.480;11.962;2023-07-29T13:03:50;3.13;;;1.65;;
13335;SDS011;6737;51.480;11.962;2023-07-29T13:06:16;2.47;;;1.50;;
13335;SDS011;6737;51.480;11.962;2023-07-29T13:08:42;2.90;;;1.33;;
13335;SDS011;6737;51.480;11.962;2023-07-29T13:11:08;2.00;;;1.60;;
13335;SDS011;6737;51.480;11.962;2023-07-29T13:13:34;2.35;;;1.20;;
13335;SDS011;6737;51.480;11.962;2023-07-29T13:16:00;2.65;;;1.55;;
13335;SDS011;6737;51.480;11.962;2023-07-29T13:18:26;1.52;;;1.42;;
13335;SDS011;6737;51.480;11.962;2023-07-29T13:20:52;2.72;;;1.50;;
13335;SDS011;6737;51.480;11.962;2023-07-29T13:23:18;1.70;;;1.48;;
13335;SDS011;6737;51.480;11.962;2023-07-29T13:25:44;2.88;;;1.52;;
13335;SDS011;6737;51.480;11.962;2023-07-29T13:28:10;2.08;;;1.50;;
13335;SDS011;6737;51.480;11.962;2023-07-29T13:30:38;2.10;;;1.70;;
13335;SDS011;6737;51.480;11.962;2023-07-29T13:33:05;1.70;;;1.60;;
13335;SDS011;6737;51.480;11.962;2023-07-29T13:35:32;1.90;;;1.63;;
13335;SDS011;6737;51.480;11.962;2023-07-29T13:37:58;1.95;;;1.33;;
13335;SDS011;6737;51.480;11.962;2023-07-29T13:40:24;3.72;;;1.60;;
13335;SDS011;6737;51.480;11.962;2023-07-29T13:42:49;1.67;;;1.50;;
13335;SDS011;6737;51.480;11.962;2023-07-29T13:45:15;2.65;;;1.38;;
13335;SDS011;6737;51.480;11.962;2023-07-29T13:47:41;3.95;;;1.50;;
13335;SDS011;6737;51.480;11.962;2023-07-29T13:50:07;1.50;;;1.40;;
13335;SDS011;6737;51.480;11.962;2023-07-29T13:52:33;1.42;;;1.30;;
13335;SDS011;6737;51.480;11.962;2023-07-29T13:54:59;1.40;;;1.30;;
13335;SDS011;6737;51.480;11.962;2023-07-29T13:57:25;2.25;;;1.52;;
13335;SDS011;6737;51.480;11.962;2023-07-29T13:59:51;3.03;;;1.40;;
13335;SDS011;6737;51.480;11.962;2023-07-29T14:02:16;3.22;;;1.58;;
13335;SDS011;6737;51.480;11.962;2023-07-29T14:04:42;3.00;;;1.67;;
13335;SDS011;6737;51.480;11.962;2023-07-29T14:07:09;4.03;;;1.50;;
13335;SDS011;6737;51.480;11.962;2023-07-29T14:09:34;1.55;;;1.35;;
13335;SDS011;6737;51.480;11.962;2023-07-29T14:12:00;2.80;;;1.90;;
13335;SDS011;6737;51.480;11.962;2023-07-29T14:14:26;4.78;;;1.90;;
13335;SDS011;6737;51.480;11.962;2023-07-29T14:16:51;2.00;;;1.80;;
13335;SDS011;6737;51.480;11.962;2023-07-29T14:19:17;5.07;;;1.90;;
13335;SDS011;6737;51.480;11.962;2023-07-29T14:21:43;3.15;;;1.85;;
13335;SDS011;6737;51.480;11.962;2023-07-29T14:24:09;18.50;;;3.85;;
13335;SDS011;6737;51.480;11.962;2023-07-29T14:26:35;21.27;;;5.18;;
13335;SDS011;6737;51.480;11.962;2023-07-29T14:29:00;11.13;;;3.63;;
13335;SDS011;6737;51.480;11.962;2023-07-29T14:31:26;22.77;;;4.97;;
13335;SDS011;6737;51.480;11.962;2023-07-29T14:33:52;17.55;;;4.60;;
13335;SDS011;6737;51.480;11.962;2023-07-29T14:36:18;6.13;;;3.28;;
13335;SDS011;6737;51.480;11.962;2023-07-29T14:38:43;7.10;;;3.60;;
13335;SDS011;6737;51.480;11.962;2023-07-29T14:41:09;10.05;;;3.50;;
13335;SDS011;6737;51.480;11.962;2023-07-29T14:43:35;6.88;;;3.67;;
13335;SDS011;6737;51.480;11.962;2023-07-29T14:46:01;6.53;;;3.40;;
13335;SDS011;6737;51.480;11.962;2023-07-29T14:48:27;4.07;;;2.75;;
13335;SDS011;6737;51.480;11.962;2023-07-29T14:50:54;6.25;;;2.83;;
13335;SDS011;6737;51.480;11.962;2023-07-29T14:53:20;4.30;;;2.67;;
13335;SDS011;6737;51.480;11.962;2023-07-29T14:55:45;4.55;;;2.45;;
13335;SDS011;6737;51.480;11.962;2023-07-29T14:58:11;5.50;;;2.70;;
13335;SDS011;6737;51.480;11.962;2023-07-29T15:00:37;6.63;;;2.67;;